<?xml version="1.0" encoding="UTF-8" standalone="no" ?><gpx xmlns="http://www.topografix.com/GPX/1/1" xmlns:gpxx="http://www.garmin.com/xmlschemas/GpxExtensions/v3" xmlns:wptx1="http://www.garmin.com/xmlschemas/WaypointExtension/v1" xmlns:gpxtpx="http://www.garmin.com/xmlschemas/TrackPointExtension/v1" creator="Dakota 20" version="1.1" xmlns:xsi="http://www.w3.org/2001/XMLSchema-instance" xsi:schemaLocation="http://www.topografix.com/GPX/1/1 http://www.topografix.com/GPX/1/1/gpx.xsd http://www.garmin.com/xmlschemas/GpxExtensions/v3 http://www8.garmin.com/xmlschemas/GpxExtensionsv3.xsd http://www.garmin.com/xmlschemas/WaypointExtension/v1 http://www8.garmin.com/xmlschemas/WaypointExtensionv1.xsd http://www.garmin.com/xmlschemas/TrackPointExtension/v1 http://www.garmin.com/xmlschemas/TrackPointExtensionv1.xsd"><metadata><link href="http://www.garmin.com"><text>Garmin International</text></link><time>2014-11-19T15:10:29Z</time></metadata><trk><name>Current Track: 19 NOV 2014 10:03</name><extensions><gpxx:TrackExtension><gpxx:DisplayColor>Cyan</gpxx:DisplayColor></gpxx:TrackExtension></extensions><trkseg><trkpt lat="51.7454995215" lon="-2.2825441975"><ele>37.15</ele><time>2014-11-19T10:03:35Z</time></trkpt><trkpt lat="51.7454978451" lon="-2.2825400066"><ele>35.71</ele><time>2014-11-19T10:03:40Z</time></trkpt><trkpt lat="51.7455270980" lon="-2.2824524995"><ele>35.71</ele><time>2014-11-19T10:03:52Z</time></trkpt><trkpt lat="51.7455463763" lon="-2.2823685128"><ele>36.67</ele><time>2014-11-19T10:04:05Z</time></trkpt><trkpt lat="51.7454837635" lon="-2.2821401060"><ele>35.71</ele><time>2014-11-19T10:04:17Z</time></trkpt><trkpt lat="51.7454371601" lon="-2.2821124457"><ele>34.74</ele><time>2014-11-19T10:04:22Z</time></trkpt><trkpt lat="51.7452591285" lon="-2.2822141182"><ele>34.26</ele><time>2014-11-19T10:04:40Z</time></trkpt><trkpt lat="51.7450893950" lon="-2.2823139466"><ele>34.74</ele><time>2014-11-19T10:04:57Z</time></trkpt><trkpt lat="51.7448899895" lon="-2.2825213987"><ele>33.78</ele><time>2014-11-19T10:05:17Z</time></trkpt><trkpt lat="51.7447729781" lon="-2.2826272622"><ele>32.82</ele><time>2014-11-19T10:05:34Z</time></trkpt><trkpt lat="51.7446951941" lon="-2.2827453632"><ele>33.30</ele><time>2014-11-19T10:05:52Z</time></trkpt><trkpt lat="51.7445278913" lon="-2.2829926293"><ele>33.78</ele><time>2014-11-19T10:06:12Z</time></trkpt><trkpt lat="51.7443115544" lon="-2.2831934597"><ele>31.86</ele><time>2014-11-19T10:06:32Z</time></trkpt><trkpt lat="51.7441479396" lon="-2.2833567392"><ele>32.34</ele><time>2014-11-19T10:06:49Z</time></trkpt><trkpt lat="51.7439643759" lon="-2.2835331783"><ele>31.86</ele><time>2014-11-19T10:07:07Z</time></trkpt><trkpt lat="51.7437698320" lon="-2.2836610023"><ele>30.90</ele><time>2014-11-19T10:07:22Z</time></trkpt><trkpt lat="51.7436962388" lon="-2.2836575657"><ele>31.86</ele><time>2014-11-19T10:07:29Z</time></trkpt><trkpt lat="51.7434767168" lon="-2.2836170811"><ele>30.90</ele><time>2014-11-19T10:07:46Z</time></trkpt><trkpt lat="51.7433357332" lon="-2.2836109623"><ele>29.94</ele><time>2014-11-19T10:08:00Z</time></trkpt><trkpt lat="51.7432859447" lon="-2.2836151533"><ele>30.42</ele><time>2014-11-19T10:08:18Z</time></trkpt><trkpt lat="51.7431534268" lon="-2.2835760936"><ele>30.42</ele><time>2014-11-19T10:08:31Z</time></trkpt><trkpt lat="51.7429670971" lon="-2.2835216951"><ele>28.98</ele><time>2014-11-19T10:08:47Z</time></trkpt><trkpt lat="51.7428409494" lon="-2.2835601680"><ele>28.02</ele><time>2014-11-19T10:09:00Z</time></trkpt><trkpt lat="51.7427171487" lon="-2.2836101241"><ele>27.53</ele><time>2014-11-19T10:09:12Z</time></trkpt><trkpt lat="51.7425713036" lon="-2.2836173326"><ele>27.53</ele><time>2014-11-19T10:09:26Z</time></trkpt><trkpt lat="51.7424475029" lon="-2.2836080287"><ele>27.53</ele><time>2014-11-19T10:09:40Z</time></trkpt><trkpt lat="51.7424361873" lon="-2.2836053465"><ele>27.05</ele><time>2014-11-19T10:10:06Z</time></trkpt><trkpt lat="51.7424294818" lon="-2.2836076096"><ele>27.05</ele><time>2014-11-19T10:10:23Z</time></trkpt><trkpt lat="51.7422438227" lon="-2.2836812027"><ele>27.05</ele><time>2014-11-19T10:10:39Z</time></trkpt><trkpt lat="51.7421145737" lon="-2.2837363556"><ele>27.53</ele><time>2014-11-19T10:10:53Z</time></trkpt><trkpt lat="51.7420874164" lon="-2.2837541252"><ele>28.02</ele><time>2014-11-19T10:10:56Z</time></trkpt><trkpt lat="51.7419101391" lon="-2.2838281374"><ele>28.02</ele><time>2014-11-19T10:11:12Z</time></trkpt><trkpt lat="51.7418983206" lon="-2.2838676162"><ele>27.53</ele><time>2014-11-19T10:11:18Z</time></trkpt><trkpt lat="51.7418331932" lon="-2.2839660197"><ele>27.05</ele><time>2014-11-19T10:11:28Z</time></trkpt><trkpt lat="51.7416935507" lon="-2.2840256151"><ele>26.57</ele><time>2014-11-19T10:11:44Z</time></trkpt><trkpt lat="51.7416727636" lon="-2.2840333264"><ele>26.09</ele><time>2014-11-19T10:11:59Z</time></trkpt><trkpt lat="51.7416511383" lon="-2.2840500064"><ele>25.61</ele><time>2014-11-19T10:12:15Z</time></trkpt><trkpt lat="51.7416044511" lon="-2.2840544488"><ele>25.61</ele><time>2014-11-19T10:12:19Z</time></trkpt><trkpt lat="51.7414068058" lon="-2.2841241863"><ele>23.21</ele><time>2014-11-19T10:12:34Z</time></trkpt><trkpt lat="51.7412473820" lon="-2.2841642518"><ele>23.69</ele><time>2014-11-19T10:12:48Z</time></trkpt><trkpt lat="51.7410984356" lon="-2.2842349950"><ele>22.73</ele><time>2014-11-19T10:13:02Z</time></trkpt><trkpt lat="51.7410310451" lon="-2.2842694446"><ele>22.73</ele><time>2014-11-19T10:13:09Z</time></trkpt><trkpt lat="51.7409924045" lon="-2.2843279503"><ele>22.25</ele><time>2014-11-19T10:13:14Z</time></trkpt><trkpt lat="51.7408109363" lon="-2.2843622323"><ele>22.25</ele><time>2014-11-19T10:13:31Z</time></trkpt><trkpt lat="51.7406595591" lon="-2.2843910661"><ele>22.73</ele><time>2014-11-19T10:13:46Z</time></trkpt><trkpt lat="51.7405255325" lon="-2.2843933292"><ele>22.73</ele><time>2014-11-19T10:14:01Z</time></trkpt><trkpt lat="51.7405240238" lon="-2.2843937483"><ele>22.73</ele><time>2014-11-19T10:14:02Z</time></trkpt><trkpt lat="51.7404997163" lon="-2.2843968496"><ele>22.25</ele><time>2014-11-19T10:14:05Z</time></trkpt><trkpt lat="51.7404037435" lon="-2.2843933292"><ele>22.25</ele><time>2014-11-19T10:14:13Z</time></trkpt><trkpt lat="51.7402303219" lon="-2.2844038066"><ele>21.77</ele><time>2014-11-19T10:14:28Z</time></trkpt><trkpt lat="51.7402060144" lon="-2.2844159603"><ele>21.77</ele><time>2014-11-19T10:14:30Z</time></trkpt><trkpt lat="51.7401117180" lon="-2.2845171299"><ele>22.25</ele><time>2014-11-19T10:14:40Z</time></trkpt><trkpt lat="51.7400248814" lon="-2.2847495601"><ele>22.25</ele><time>2014-11-19T10:14:56Z</time></trkpt><trkpt lat="51.7399706505" lon="-2.2850269172"><ele>22.25</ele><time>2014-11-19T10:15:11Z</time></trkpt><trkpt lat="51.7399279028" lon="-2.2853112314"><ele>21.77</ele><time>2014-11-19T10:15:27Z</time></trkpt><trkpt lat="51.7398957163" lon="-2.2855575755"><ele>21.29</ele><time>2014-11-19T10:15:42Z</time></trkpt><trkpt lat="51.7398599256" lon="-2.2857881617"><ele>21.77</ele><time>2014-11-19T10:15:56Z</time></trkpt><trkpt lat="51.7398211174" lon="-2.2860163171"><ele>21.29</ele><time>2014-11-19T10:16:10Z</time></trkpt><trkpt lat="51.7398217041" lon="-2.2860641778"><ele>20.81</ele><time>2014-11-19T10:16:13Z</time></trkpt><trkpt lat="51.7398279067" lon="-2.2861894872"><ele>20.81</ele><time>2014-11-19T10:16:22Z</time></trkpt><trkpt lat="51.7397262342" lon="-2.2864454705"><ele>21.29</ele><time>2014-11-19T10:16:38Z</time></trkpt><trkpt lat="51.7395969015" lon="-2.2865935788"><ele>21.29</ele><time>2014-11-19T10:16:53Z</time></trkpt><trkpt lat="51.7394538224" lon="-2.2866525035"><ele>19.84</ele><time>2014-11-19T10:17:08Z</time></trkpt><trkpt lat="51.7393228970" lon="-2.2867524996"><ele>20.81</ele><time>2014-11-19T10:17:22Z</time></trkpt><trkpt lat="51.7392282654" lon="-2.2869200539"><ele>20.81</ele><time>2014-11-19T10:17:36Z</time></trkpt><trkpt lat="51.7390872817" lon="-2.2870843392"><ele>20.81</ele><time>2014-11-19T10:17:52Z</time></trkpt><trkpt lat="51.7389382515" lon="-2.2872328665"><ele>20.32</ele><time>2014-11-19T10:18:08Z</time></trkpt><trkpt lat="51.7388838530" lon="-2.2872825712"><ele>20.32</ele><time>2014-11-19T10:18:17Z</time></trkpt><trkpt lat="51.7388654966" lon="-2.2872731835"><ele>20.81</ele><time>2014-11-19T10:18:19Z</time></trkpt><trkpt lat="51.7388141155" lon="-2.2872819845"><ele>20.32</ele><time>2014-11-19T10:18:32Z</time></trkpt><trkpt lat="51.7387973517" lon="-2.2872870974"><ele>21.29</ele><time>2014-11-19T10:18:47Z</time></trkpt><trkpt lat="51.7387940828" lon="-2.2872417513"><ele>19.84</ele><time>2014-11-19T10:19:04Z</time></trkpt><trkpt lat="51.7387878802" lon="-2.2872161027"><ele>20.32</ele><time>2014-11-19T10:19:06Z</time></trkpt><trkpt lat="51.7387647461" lon="-2.2871764563"><ele>20.81</ele><time>2014-11-19T10:19:09Z</time></trkpt><trkpt lat="51.7387380078" lon="-2.2871451080"><ele>20.32</ele><time>2014-11-19T10:19:12Z</time></trkpt><trkpt lat="51.7386981938" lon="-2.2870261688"><ele>20.32</ele><time>2014-11-19T10:19:24Z</time></trkpt><trkpt lat="51.7386960983" lon="-2.2869734466"><ele>20.32</ele><time>2014-11-19T10:19:27Z</time></trkpt><trkpt lat="51.7387074139" lon="-2.2867911402"><ele>20.32</ele><time>2014-11-19T10:19:40Z</time></trkpt><trkpt lat="51.7387183104" lon="-2.2864979412"><ele>20.32</ele><time>2014-11-19T10:19:58Z</time></trkpt><trkpt lat="51.7387337331" lon="-2.2862258647"><ele>20.32</ele><time>2014-11-19T10:20:14Z</time></trkpt><trkpt lat="51.7387722060" lon="-2.2859444842"><ele>19.84</ele><time>2014-11-19T10:20:30Z</time></trkpt><trkpt lat="51.7388010398" lon="-2.2857081983"><ele>20.81</ele><time>2014-11-19T10:20:45Z</time></trkpt><trkpt lat="51.7388335615" lon="-2.2854502033"><ele>20.81</ele><time>2014-11-19T10:21:01Z</time></trkpt><trkpt lat="51.7388804164" lon="-2.2852155939"><ele>20.81</ele><time>2014-11-19T10:21:16Z</time></trkpt><trkpt lat="51.7388935760" lon="-2.2851546574"><ele>21.29</ele><time>2014-11-19T10:21:20Z</time></trkpt><trkpt lat="51.7389068194" lon="-2.2850644682"><ele>20.32</ele><time>2014-11-19T10:21:26Z</time></trkpt><trkpt lat="51.7389296181" lon="-2.2848989256"><ele>21.77</ele><time>2014-11-19T10:21:37Z</time></trkpt><trkpt lat="51.7389327195" lon="-2.2847467940"><ele>20.81</ele><time>2014-11-19T10:21:46Z</time></trkpt><trkpt lat="51.7389487289" lon="-2.2844494879"><ele>21.29</ele><time>2014-11-19T10:22:05Z</time></trkpt><trkpt lat="51.7389658280" lon="-2.2842028085"><ele>20.81</ele><time>2014-11-19T10:22:20Z</time></trkpt><trkpt lat="51.7389807478" lon="-2.2839591466"><ele>20.81</ele><time>2014-11-19T10:22:35Z</time></trkpt><trkpt lat="51.7390011996" lon="-2.2836952843"><ele>21.29</ele><time>2014-11-19T10:22:49Z</time></trkpt><trkpt lat="51.7390084919" lon="-2.2835765965"><ele>21.29</ele><time>2014-11-19T10:22:56Z</time></trkpt><trkpt lat="51.7390073184" lon="-2.2835398838"><ele>21.29</ele><time>2014-11-19T10:22:58Z</time></trkpt><trkpt lat="51.7390369903" lon="-2.2833192721"><ele>21.29</ele><time>2014-11-19T10:23:13Z</time></trkpt><trkpt lat="51.7390385829" lon="-2.2832851578"><ele>21.77</ele><time>2014-11-19T10:23:15Z</time></trkpt><trkpt lat="51.7390251718" lon="-2.2830326110"><ele>21.77</ele><time>2014-11-19T10:23:32Z</time></trkpt><trkpt lat="51.7390360683" lon="-2.2828239854"><ele>21.77</ele><time>2014-11-19T10:23:45Z</time></trkpt><trkpt lat="51.7390341405" lon="-2.2827253304"><ele>21.29</ele><time>2014-11-19T10:23:59Z</time></trkpt><trkpt lat="51.7390272673" lon="-2.2826917190"><ele>21.29</ele><time>2014-11-19T10:24:20Z</time></trkpt><trkpt lat="51.7390144430" lon="-2.2825723607"><ele>22.25</ele><time>2014-11-19T10:24:36Z</time></trkpt><trkpt lat="51.7389636487" lon="-2.2824381664"><ele>22.73</ele><time>2014-11-19T10:24:47Z</time></trkpt><trkpt lat="51.7389476392" lon="-2.2824102547"><ele>22.25</ele><time>2014-11-19T10:24:49Z</time></trkpt><trkpt lat="51.7388911452" lon="-2.2821584623"><ele>22.73</ele><time>2014-11-19T10:25:06Z</time></trkpt><trkpt lat="51.7388725374" lon="-2.2820601426"><ele>22.25</ele><time>2014-11-19T10:25:13Z</time></trkpt><trkpt lat="51.7388740461" lon="-2.2820257768"><ele>23.21</ele><time>2014-11-19T10:25:15Z</time></trkpt><trkpt lat="51.7388649099" lon="-2.2819812689"><ele>22.73</ele><time>2014-11-19T10:25:18Z</time></trkpt><trkpt lat="51.7388354894" lon="-2.2818176541"><ele>21.77</ele><time>2014-11-19T10:25:30Z</time></trkpt><trkpt lat="51.7388266046" lon="-2.2815299034"><ele>21.29</ele><time>2014-11-19T10:25:46Z</time></trkpt><trkpt lat="51.7388231680" lon="-2.2813134827"><ele>22.25</ele><time>2014-11-19T10:25:59Z</time></trkpt><trkpt lat="51.7388262693" lon="-2.2810341977"><ele>22.25</ele><time>2014-11-19T10:26:14Z</time></trkpt><trkpt lat="51.7388177197" lon="-2.2807253245"><ele>21.77</ele><time>2014-11-19T10:26:31Z</time></trkpt><trkpt lat="51.7388154566" lon="-2.2805161960"><ele>21.77</ele><time>2014-11-19T10:26:45Z</time></trkpt><trkpt lat="51.7388194799" lon="-2.2803033795"><ele>22.73</ele><time>2014-11-19T10:26:58Z</time></trkpt><trkpt lat="51.7388141155" lon="-2.2800735477"><ele>22.73</ele><time>2014-11-19T10:27:11Z</time></trkpt><trkpt lat="51.7388198152" lon="-2.2798516788"><ele>23.21</ele><time>2014-11-19T10:27:26Z</time></trkpt><trkpt lat="51.7388067394" lon="-2.2795941867"><ele>22.73</ele><time>2014-11-19T10:27:42Z</time></trkpt><trkpt lat="51.7387945857" lon="-2.2793048434"><ele>22.73</ele><time>2014-11-19T10:27:59Z</time></trkpt><trkpt lat="51.7387919873" lon="-2.2790921945"><ele>23.21</ele><time>2014-11-19T10:28:15Z</time></trkpt><trkpt lat="51.7387911491" lon="-2.2788683139"><ele>22.73</ele><time>2014-11-19T10:28:28Z</time></trkpt><trkpt lat="51.7388107628" lon="-2.2786537372"><ele>22.73</ele><time>2014-11-19T10:28:42Z</time></trkpt><trkpt lat="51.7388131097" lon="-2.2784165293"><ele>22.73</ele><time>2014-11-19T10:28:58Z</time></trkpt><trkpt lat="51.7388080806" lon="-2.2781359870"><ele>22.73</ele><time>2014-11-19T10:29:14Z</time></trkpt><trkpt lat="51.7387877125" lon="-2.2779219132"><ele>22.73</ele><time>2014-11-19T10:29:28Z</time></trkpt><trkpt lat="51.7387755588" lon="-2.2776096035"><ele>23.21</ele><time>2014-11-19T10:29:45Z</time></trkpt><trkpt lat="51.7387677636" lon="-2.2774124611"><ele>23.21</ele><time>2014-11-19T10:30:00Z</time></trkpt><trkpt lat="51.7387407739" lon="-2.2771236207"><ele>23.21</ele><time>2014-11-19T10:30:18Z</time></trkpt><trkpt lat="51.7387128621" lon="-2.2768646199"><ele>24.17</ele><time>2014-11-19T10:30:35Z</time></trkpt><trkpt lat="51.7387083359" lon="-2.2767559066"><ele>25.13</ele><time>2014-11-19T10:30:43Z</time></trkpt><trkpt lat="51.7386731319" lon="-2.2764860932"><ele>24.17</ele><time>2014-11-19T10:31:00Z</time></trkpt><trkpt lat="51.7386465613" lon="-2.2762174532"><ele>23.69</ele><time>2014-11-19T10:31:17Z</time></trkpt><trkpt lat="51.7386180628" lon="-2.2759130225"><ele>24.65</ele><time>2014-11-19T10:31:36Z</time></trkpt><trkpt lat="51.7385965213" lon="-2.2756797541"><ele>24.65</ele><time>2014-11-19T10:31:51Z</time></trkpt><trkpt lat="51.7385498341" lon="-2.2754108626"><ele>24.65</ele><time>2014-11-19T10:32:08Z</time></trkpt><trkpt lat="51.7384713795" lon="-2.2751513589"><ele>24.65</ele><time>2014-11-19T10:32:26Z</time></trkpt><trkpt lat="51.7384509277" lon="-2.2750237025"><ele>24.17</ele><time>2014-11-19T10:32:42Z</time></trkpt><trkpt lat="51.7384691164" lon="-2.2750109620"><ele>24.65</ele><time>2014-11-19T10:33:02Z</time></trkpt><trkpt lat="51.7384701222" lon="-2.2750078607"><ele>24.65</ele><time>2014-11-19T10:33:29Z</time></trkpt><trkpt lat="51.7384766601" lon="-2.2749972995"><ele>24.65</ele><time>2014-11-19T10:33:50Z</time></trkpt><trkpt lat="51.7384854611" lon="-2.2749776859"><ele>24.65</ele><time>2014-11-19T10:34:11Z</time></trkpt><trkpt lat="51.7385014705" lon="-2.2748821322"><ele>25.13</ele><time>2014-11-19T10:34:32Z</time></trkpt><trkpt lat="51.7384951841" lon="-2.2748884186"><ele>24.17</ele><time>2014-11-19T10:34:57Z</time></trkpt><trkpt lat="51.7384959385" lon="-2.2748828866"><ele>24.65</ele><time>2014-11-19T10:35:23Z</time></trkpt><trkpt lat="51.7384950165" lon="-2.2747134045"><ele>25.13</ele><time>2014-11-19T10:35:40Z</time></trkpt><trkpt lat="51.7384576332" lon="-2.2744476143"><ele>23.69</ele><time>2014-11-19T10:35:54Z</time></trkpt><trkpt lat="51.7384056654" lon="-2.2742347140"><ele>25.61</ele><time>2014-11-19T10:36:10Z</time></trkpt><trkpt lat="51.7383537814" lon="-2.2740854323"><ele>25.61</ele><time>2014-11-19T10:36:27Z</time></trkpt><trkpt lat="51.7383446451" lon="-2.2740230709"><ele>25.13</ele><time>2014-11-19T10:36:43Z</time></trkpt><trkpt lat="51.7383261211" lon="-2.2739274334"><ele>26.09</ele><time>2014-11-19T10:37:00Z</time></trkpt><trkpt lat="51.7382900789" lon="-2.2736975178"><ele>25.61</ele><time>2014-11-19T10:37:16Z</time></trkpt><trkpt lat="51.7383122910" lon="-2.2734898143"><ele>25.61</ele><time>2014-11-19T10:37:30Z</time></trkpt><trkpt lat="51.7382820323" lon="-2.2732990421"><ele>25.61</ele><time>2014-11-19T10:37:45Z</time></trkpt><trkpt lat="51.7382955272" lon="-2.2731778398"><ele>25.61</ele><time>2014-11-19T10:37:59Z</time></trkpt><trkpt lat="51.7382891569" lon="-2.2731107008"><ele>25.61</ele><time>2014-11-19T10:38:03Z</time></trkpt><trkpt lat="51.7382767517" lon="-2.2728800308"><ele>26.57</ele><time>2014-11-19T10:38:19Z</time></trkpt><trkpt lat="51.7382852174" lon="-2.2726251371"><ele>27.05</ele><time>2014-11-19T10:38:34Z</time></trkpt><trkpt lat="51.7382789310" lon="-2.2725453414"><ele>26.09</ele><time>2014-11-19T10:38:50Z</time></trkpt><trkpt lat="51.7382740695" lon="-2.2724474408"><ele>27.05</ele><time>2014-11-19T10:39:06Z</time></trkpt><trkpt lat="51.7382701300" lon="-2.2723707464"><ele>27.05</ele><time>2014-11-19T10:39:24Z</time></trkpt><trkpt lat="51.7382493429" lon="-2.2722739354"><ele>27.05</ele><time>2014-11-19T10:39:40Z</time></trkpt><trkpt lat="51.7382659391" lon="-2.2722596023"><ele>27.53</ele><time>2014-11-19T10:40:01Z</time></trkpt><trkpt lat="51.7383163143" lon="-2.2722571716"><ele>26.57</ele><time>2014-11-19T10:40:16Z</time></trkpt><trkpt lat="51.7383411247" lon="-2.2722667269"><ele>27.05</ele><time>2014-11-19T10:40:37Z</time></trkpt><trkpt lat="51.7383369338" lon="-2.2722533159"><ele>27.53</ele><time>2014-11-19T10:40:58Z</time></trkpt><trkpt lat="51.7383354250" lon="-2.2722421680"><ele>28.02</ele><time>2014-11-19T10:41:18Z</time></trkpt><trkpt lat="51.7383328266" lon="-2.2722306848"><ele>28.02</ele><time>2014-11-19T10:41:33Z</time></trkpt><trkpt lat="51.7383371014" lon="-2.2721011005"><ele>28.50</ele><time>2014-11-19T10:41:50Z</time></trkpt><trkpt lat="51.7384873051" lon="-2.2718954924"><ele>28.98</ele><time>2014-11-19T10:42:09Z</time></trkpt><trkpt lat="51.7386597209" lon="-2.2717426904"><ele>28.50</ele><time>2014-11-19T10:42:27Z</time></trkpt><trkpt lat="51.7387052346" lon="-2.2716975119"><ele>28.50</ele><time>2014-11-19T10:42:31Z</time></trkpt><trkpt lat="51.7388691846" lon="-2.2715207376"><ele>27.05</ele><time>2014-11-19T10:42:49Z</time></trkpt><trkpt lat="51.7390124314" lon="-2.2715019621"><ele>26.09</ele><time>2014-11-19T10:43:06Z</time></trkpt><trkpt lat="51.7390777264" lon="-2.2716089990"><ele>26.57</ele><time>2014-11-19T10:43:27Z</time></trkpt><trkpt lat="51.7391753756" lon="-2.2715811711"><ele>26.57</ele><time>2014-11-19T10:43:41Z</time></trkpt><trkpt lat="51.7392079812" lon="-2.2714013793"><ele>25.61</ele><time>2014-11-19T10:43:56Z</time></trkpt><trkpt lat="51.7392974161" lon="-2.2714090068"><ele>25.61</ele><time>2014-11-19T10:44:18Z</time></trkpt><trkpt lat="51.7393339612" lon="-2.2715871222"><ele>25.61</ele><time>2014-11-19T10:44:35Z</time></trkpt><trkpt lat="51.7393591069" lon="-2.2716982663"><ele>26.57</ele><time>2014-11-19T10:44:52Z</time></trkpt><trkpt lat="51.7394240666" lon="-2.2718068957"><ele>28.50</ele><time>2014-11-19T10:45:07Z</time></trkpt><trkpt lat="51.7395523097" lon="-2.2717536706"><ele>29.94</ele><time>2014-11-19T10:45:24Z</time></trkpt><trkpt lat="51.7396814749" lon="-2.2717089113"><ele>29.94</ele><time>2014-11-19T10:45:38Z</time></trkpt><trkpt lat="51.7397839017" lon="-2.2716904711"><ele>29.94</ele><time>2014-11-19T10:45:48Z</time></trkpt><trkpt lat="51.7398852389" lon="-2.2716960870"><ele>29.94</ele><time>2014-11-19T10:46:03Z</time></trkpt><trkpt lat="51.7398997396" lon="-2.2716955841"><ele>29.94</ele><time>2014-11-19T10:46:22Z</time></trkpt><trkpt lat="51.7398969736" lon="-2.2716302890"><ele>29.94</ele><time>2014-11-19T10:46:40Z</time></trkpt><trkpt lat="51.7398767732" lon="-2.2714519221"><ele>28.50</ele><time>2014-11-19T10:46:48Z</time></trkpt><trkpt lat="51.7399061937" lon="-2.2711775824"><ele>27.05</ele><time>2014-11-19T10:47:03Z</time></trkpt><trkpt lat="51.7399107199" lon="-2.2709294781"><ele>26.57</ele><time>2014-11-19T10:47:18Z</time></trkpt><trkpt lat="51.7399121448" lon="-2.2705394682"><ele>27.05</ele><time>2014-11-19T10:47:33Z</time></trkpt><trkpt lat="51.7398990691" lon="-2.2703366261"><ele>26.57</ele><time>2014-11-19T10:47:47Z</time></trkpt><trkpt lat="51.7398758512" lon="-2.2700170241"><ele>26.57</ele><time>2014-11-19T10:48:06Z</time></trkpt><trkpt lat="51.7398661282" lon="-2.2697310336"><ele>27.05</ele><time>2014-11-19T10:48:25Z</time></trkpt><trkpt lat="51.7398557346" lon="-2.2694487311"><ele>26.09</ele><time>2014-11-19T10:48:41Z</time></trkpt><trkpt lat="51.7398401443" lon="-2.2691264469"><ele>26.57</ele><time>2014-11-19T10:48:59Z</time></trkpt><trkpt lat="51.7398209497" lon="-2.2688744031"><ele>27.05</ele><time>2014-11-19T10:49:18Z</time></trkpt><trkpt lat="51.7398405634" lon="-2.2685624287"><ele>26.09</ele><time>2014-11-19T10:49:34Z</time></trkpt><trkpt lat="51.7398278229" lon="-2.2683014162"><ele>26.57</ele><time>2014-11-19T10:49:51Z</time></trkpt><trkpt lat="51.7398533877" lon="-2.2680609394"><ele>26.57</ele><time>2014-11-19T10:50:08Z</time></trkpt><trkpt lat="51.7398408148" lon="-2.2678629588"><ele>26.57</ele><time>2014-11-19T10:50:22Z</time></trkpt><trkpt lat="51.7398605961" lon="-2.2676409222"><ele>26.57</ele><time>2014-11-19T10:50:38Z</time></trkpt><trkpt lat="51.7398225423" lon="-2.2674301174"><ele>26.57</ele><time>2014-11-19T10:50:55Z</time></trkpt><trkpt lat="51.7398314271" lon="-2.2674369905"><ele>25.61</ele><time>2014-11-19T10:51:22Z</time></trkpt><trkpt lat="51.7398220394" lon="-2.2674230766"><ele>26.09</ele><time>2014-11-19T10:51:41Z</time></trkpt><trkpt lat="51.7398269847" lon="-2.2672584560"><ele>26.57</ele><time>2014-11-19T10:51:56Z</time></trkpt><trkpt lat="51.7397939600" lon="-2.2669033147"><ele>26.09</ele><time>2014-11-19T10:52:11Z</time></trkpt><trkpt lat="51.7397831473" lon="-2.2666424699"><ele>26.57</ele><time>2014-11-19T10:52:27Z</time></trkpt><trkpt lat="51.7397598457" lon="-2.2664485965"><ele>26.09</ele><time>2014-11-19T10:52:43Z</time></trkpt><trkpt lat="51.7397745140" lon="-2.2662295774"><ele>26.57</ele><time>2014-11-19T10:53:00Z</time></trkpt><trkpt lat="51.7398020905" lon="-2.2659925371"><ele>26.09</ele><time>2014-11-19T10:53:18Z</time></trkpt><trkpt lat="51.7398018390" lon="-2.2657477017"><ele>26.09</ele><time>2014-11-19T10:53:36Z</time></trkpt><trkpt lat="51.7398138251" lon="-2.2654550057"><ele>26.09</ele><time>2014-11-19T10:53:54Z</time></trkpt><trkpt lat="51.7398387194" lon="-2.2652096674"><ele>25.61</ele><time>2014-11-19T10:54:12Z</time></trkpt><trkpt lat="51.7398157530" lon="-2.2649880499"><ele>26.09</ele><time>2014-11-19T10:54:28Z</time></trkpt><trkpt lat="51.7398381326" lon="-2.2647168953"><ele>25.61</ele><time>2014-11-19T10:54:47Z</time></trkpt><trkpt lat="51.7398565728" lon="-2.2644269653"><ele>26.57</ele><time>2014-11-19T10:55:07Z</time></trkpt><trkpt lat="51.7399020027" lon="-2.2641441599"><ele>26.09</ele><time>2014-11-19T10:55:25Z</time></trkpt><trkpt lat="51.7398789525" lon="-2.2638911102"><ele>25.61</ele><time>2014-11-19T10:55:41Z</time></trkpt><trkpt lat="51.7399043497" lon="-2.2636529803"><ele>27.05</ele><time>2014-11-19T10:55:58Z</time></trkpt><trkpt lat="51.7398932856" lon="-2.2633776348"><ele>29.46</ele><time>2014-11-19T10:56:14Z</time></trkpt><trkpt lat="51.7399082053" lon="-2.2632648144"><ele>29.94</ele><time>2014-11-19T10:56:29Z</time></trkpt><trkpt lat="51.7399170902" lon="-2.2632799018"><ele>29.94</ele><time>2014-11-19T10:56:53Z</time></trkpt><trkpt lat="51.7398971412" lon="-2.2632244974"><ele>29.94</ele><time>2014-11-19T10:57:10Z</time></trkpt><trkpt lat="51.7399128992" lon="-2.2630888782"><ele>29.94</ele><time>2014-11-19T10:57:28Z</time></trkpt><trkpt lat="51.7399100494" lon="-2.2629571985"><ele>30.90</ele><time>2014-11-19T10:57:42Z</time></trkpt><trkpt lat="51.7399146594" lon="-2.2629325558"><ele>29.46</ele><time>2014-11-19T10:58:02Z</time></trkpt><trkpt lat="51.7399211973" lon="-2.2629201505"><ele>29.46</ele><time>2014-11-19T10:58:30Z</time></trkpt><trkpt lat="51.7399212811" lon="-2.2629206534"><ele>29.46</ele><time>2014-11-19T10:58:56Z</time></trkpt><trkpt lat="51.7399063613" lon="-2.2629124392"><ele>29.94</ele><time>2014-11-19T10:59:12Z</time></trkpt><trkpt lat="51.7398963869" lon="-2.2629147023"><ele>29.46</ele><time>2014-11-19T10:59:41Z</time></trkpt><trkpt lat="51.7398985662" lon="-2.2629134450"><ele>29.46</ele><time>2014-11-19T11:00:08Z</time></trkpt><trkpt lat="51.7398983147" lon="-2.2629042249"><ele>29.46</ele><time>2014-11-19T11:00:38Z</time></trkpt><trkpt lat="51.7398940399" lon="-2.2629037220"><ele>29.94</ele><time>2014-11-19T11:01:06Z</time></trkpt><trkpt lat="51.7398903519" lon="-2.2628973518"><ele>29.46</ele><time>2014-11-19T11:01:31Z</time></trkpt><trkpt lat="51.7398859095" lon="-2.2628929093"><ele>29.46</ele><time>2014-11-19T11:01:59Z</time></trkpt><trkpt lat="51.7398840655" lon="-2.2628921550"><ele>28.98</ele><time>2014-11-19T11:02:20Z</time></trkpt><trkpt lat="51.7398787010" lon="-2.2628951725"><ele>28.98</ele><time>2014-11-19T11:02:40Z</time></trkpt><trkpt lat="51.7398768570" lon="-2.2628883831"><ele>28.98</ele><time>2014-11-19T11:03:08Z</time></trkpt><trkpt lat="51.7398828082" lon="-2.2628801689"><ele>28.98</ele><time>2014-11-19T11:03:41Z</time></trkpt><trkpt lat="51.7398838140" lon="-2.2628821805"><ele>29.46</ele><time>2014-11-19T11:04:11Z</time></trkpt><trkpt lat="51.7398795392" lon="-2.2629237548"><ele>29.46</ele><time>2014-11-19T11:04:38Z</time></trkpt><trkpt lat="51.7398965545" lon="-2.2629475594"><ele>28.98</ele><time>2014-11-19T11:04:56Z</time></trkpt><trkpt lat="51.7399003264" lon="-2.2629597131"><ele>28.98</ele><time>2014-11-19T11:05:14Z</time></trkpt><trkpt lat="51.7399118934" lon="-2.2629721183"><ele>28.50</ele><time>2014-11-19T11:05:39Z</time></trkpt><trkpt lat="51.7399074510" lon="-2.2629961744"><ele>28.50</ele><time>2014-11-19T11:05:57Z</time></trkpt><trkpt lat="51.7399067804" lon="-2.2630062327"><ele>31.86</ele><time>2014-11-19T11:06:10Z</time></trkpt><trkpt lat="51.7399075348" lon="-2.2629982699"><ele>28.50</ele><time>2014-11-19T11:06:11Z</time></trkpt><trkpt lat="51.7399025895" lon="-2.2629625630"><ele>28.50</ele><time>2014-11-19T11:06:25Z</time></trkpt><trkpt lat="51.7399210297" lon="-2.2629324719"><ele>28.50</ele><time>2014-11-19T11:06:49Z</time></trkpt><trkpt lat="51.7399160005" lon="-2.2629521694"><ele>28.98</ele><time>2014-11-19T11:07:04Z</time></trkpt><trkpt lat="51.7399177607" lon="-2.2629566118"><ele>28.50</ele><time>2014-11-19T11:07:32Z</time></trkpt><trkpt lat="51.7399160005" lon="-2.2629600484"><ele>28.50</ele><time>2014-11-19T11:07:54Z</time></trkpt><trkpt lat="51.7398998234" lon="-2.2629526723"><ele>28.98</ele><time>2014-11-19T11:08:17Z</time></trkpt><trkpt lat="51.7398965545" lon="-2.2629501577"><ele>28.50</ele><time>2014-11-19T11:08:49Z</time></trkpt><trkpt lat="51.7398932017" lon="-2.2629477270"><ele>28.98</ele><time>2014-11-19T11:09:18Z</time></trkpt><trkpt lat="51.7398979794" lon="-2.2629356571"><ele>28.02</ele><time>2014-11-19T11:09:49Z</time></trkpt><trkpt lat="51.7398999073" lon="-2.2629313823"><ele>28.50</ele><time>2014-11-19T11:10:14Z</time></trkpt><trkpt lat="51.7398844007" lon="-2.2629313823"><ele>28.98</ele><time>2014-11-19T11:10:35Z</time></trkpt><trkpt lat="51.7398789525" lon="-2.2629305441"><ele>28.98</ele><time>2014-11-19T11:10:58Z</time></trkpt><trkpt lat="51.7398780305" lon="-2.2629266884"><ele>28.50</ele><time>2014-11-19T11:11:27Z</time></trkpt><trkpt lat="51.7398773599" lon="-2.2629292868"><ele>28.50</ele><time>2014-11-19T11:11:44Z</time></trkpt><trkpt lat="51.7398962192" lon="-2.2627578769"><ele>28.50</ele><time>2014-11-19T11:11:57Z</time></trkpt><trkpt lat="51.7398958001" lon="-2.2626361717"><ele>28.50</ele><time>2014-11-19T11:12:04Z</time></trkpt><trkpt lat="51.7398946267" lon="-2.2625427973"><ele>28.50</ele><time>2014-11-19T11:12:10Z</time></trkpt><trkpt lat="51.7399041820" lon="-2.2624480817"><ele>28.02</ele><time>2014-11-19T11:12:14Z</time></trkpt><trkpt lat="51.7399372905" lon="-2.2621087823"><ele>28.50</ele><time>2014-11-19T11:12:32Z</time></trkpt><trkpt lat="51.7399545573" lon="-2.2617669683"><ele>28.02</ele><time>2014-11-19T11:12:48Z</time></trkpt><trkpt lat="51.7399617657" lon="-2.2616725042"><ele>28.02</ele><time>2014-11-19T11:12:52Z</time></trkpt><trkpt lat="51.7399850674" lon="-2.2613375634"><ele>28.50</ele><time>2014-11-19T11:13:07Z</time></trkpt><trkpt lat="51.7400226183" lon="-2.2610711865"><ele>28.50</ele><time>2014-11-19T11:13:21Z</time></trkpt><trkpt lat="51.7400501110" lon="-2.2607478127"><ele>28.50</ele><time>2014-11-19T11:13:34Z</time></trkpt><trkpt lat="51.7400831357" lon="-2.2604656778"><ele>28.50</ele><time>2014-11-19T11:13:49Z</time></trkpt><trkpt lat="51.7400920205" lon="-2.2602013126"><ele>28.50</ele><time>2014-11-19T11:14:04Z</time></trkpt><trkpt lat="51.7401017435" lon="-2.2600951977"><ele>28.50</ele><time>2014-11-19T11:14:09Z</time></trkpt><trkpt lat="51.7401071917" lon="-2.2599591594"><ele>28.50</ele><time>2014-11-19T11:14:13Z</time></trkpt><trkpt lat="51.7400812078" lon="-2.2595549840"><ele>28.02</ele><time>2014-11-19T11:14:31Z</time></trkpt><trkpt lat="51.7400738318" lon="-2.2593946382"><ele>28.98</ele><time>2014-11-19T11:14:41Z</time></trkpt><trkpt lat="51.7400808726" lon="-2.2591996752"><ele>28.02</ele><time>2014-11-19T11:14:56Z</time></trkpt><trkpt lat="51.7400763463" lon="-2.2591927182"><ele>29.46</ele><time>2014-11-19T11:15:17Z</time></trkpt><trkpt lat="51.7400761787" lon="-2.2591925506"><ele>26.09</ele><time>2014-11-19T11:15:18Z</time></trkpt><trkpt lat="51.7400760110" lon="-2.2591923829"><ele>28.02</ele><time>2014-11-19T11:15:19Z</time></trkpt><trkpt lat="51.7400437407" lon="-2.2591958195"><ele>28.02</ele><time>2014-11-19T11:15:37Z</time></trkpt><trkpt lat="51.7400431540" lon="-2.2591324523"><ele>28.02</ele><time>2014-11-19T11:15:40Z</time></trkpt><trkpt lat="51.7400532961" lon="-2.2589216474"><ele>27.53</ele><time>2014-11-19T11:15:51Z</time></trkpt><trkpt lat="51.7400415614" lon="-2.2586881276"><ele>27.53</ele><time>2014-11-19T11:16:06Z</time></trkpt><trkpt lat="51.7400389630" lon="-2.2585085873"><ele>28.02</ele><time>2014-11-19T11:16:15Z</time></trkpt><trkpt lat="51.7400257196" lon="-2.2584094293"><ele>28.02</ele><time>2014-11-19T11:16:19Z</time></trkpt><trkpt lat="51.7399889231" lon="-2.2581649292"><ele>28.02</ele><time>2014-11-19T11:16:30Z</time></trkpt><trkpt lat="51.7399703152" lon="-2.2579201777"><ele>28.02</ele><time>2014-11-19T11:16:41Z</time></trkpt><trkpt lat="51.7399621848" lon="-2.2576362826"><ele>28.02</ele><time>2014-11-19T11:16:56Z</time></trkpt><trkpt lat="51.7399649508" lon="-2.2575940378"><ele>28.50</ele><time>2014-11-19T11:17:08Z</time></trkpt><trkpt lat="51.7399630230" lon="-2.2575213667"><ele>28.50</ele><time>2014-11-19T11:17:24Z</time></trkpt><trkpt lat="51.7399642803" lon="-2.2574170958"><ele>28.02</ele><time>2014-11-19T11:17:37Z</time></trkpt><trkpt lat="51.7399636935" lon="-2.2573408205"><ele>27.53</ele><time>2014-11-19T11:17:41Z</time></trkpt><trkpt lat="51.7399678007" lon="-2.2571663931"><ele>28.02</ele><time>2014-11-19T11:17:51Z</time></trkpt><trkpt lat="51.7399643641" lon="-2.2569222283"><ele>28.50</ele><time>2014-11-19T11:18:06Z</time></trkpt><trkpt lat="51.7399696447" lon="-2.2568102460"><ele>28.50</ele><time>2014-11-19T11:18:14Z</time></trkpt><trkpt lat="51.7399957124" lon="-2.2565791570"><ele>28.02</ele><time>2014-11-19T11:18:28Z</time></trkpt><trkpt lat="51.7400097940" lon="-2.2563549411"><ele>28.02</ele><time>2014-11-19T11:18:41Z</time></trkpt><trkpt lat="51.7400018312" lon="-2.2562243510"><ele>28.02</ele><time>2014-11-19T11:18:49Z</time></trkpt><trkpt lat="51.7399992328" lon="-2.2561231814"><ele>27.53</ele><time>2014-11-19T11:18:56Z</time></trkpt><trkpt lat="51.7400006577" lon="-2.2559297271"><ele>27.53</ele><time>2014-11-19T11:19:07Z</time></trkpt><trkpt lat="51.7399989814" lon="-2.2557080258"><ele>28.02</ele><time>2014-11-19T11:19:20Z</time></trkpt><trkpt lat="51.7400021665" lon="-2.2555867396"><ele>27.53</ele><time>2014-11-19T11:19:28Z</time></trkpt><trkpt lat="51.7400035076" lon="-2.2554646991"><ele>28.02</ele><time>2014-11-19T11:19:35Z</time></trkpt><trkpt lat="51.7400158290" lon="-2.2553172614"><ele>28.02</ele><time>2014-11-19T11:19:43Z</time></trkpt><trkpt lat="51.7400109675" lon="-2.2552335262"><ele>28.02</ele><time>2014-11-19T11:19:46Z</time></trkpt><trkpt lat="51.7400180083" lon="-2.2550976556"><ele>28.02</ele><time>2014-11-19T11:19:53Z</time></trkpt><trkpt lat="51.7400479317" lon="-2.2549434286"><ele>27.53</ele><time>2014-11-19T11:20:02Z</time></trkpt><trkpt lat="51.7400458362" lon="-2.2547439393"><ele>27.53</ele><time>2014-11-19T11:20:15Z</time></trkpt><trkpt lat="51.7400498595" lon="-2.2546785604"><ele>27.53</ele><time>2014-11-19T11:20:30Z</time></trkpt><trkpt lat="51.7400864046" lon="-2.2545291111"><ele>27.53</ele><time>2014-11-19T11:20:42Z</time></trkpt><trkpt lat="51.7400973849" lon="-2.2543376684"><ele>27.53</ele><time>2014-11-19T11:20:54Z</time></trkpt><trkpt lat="51.7400854826" lon="-2.2541732993"><ele>27.53</ele><time>2014-11-19T11:21:02Z</time></trkpt><trkpt lat="51.7400565650" lon="-2.2540160548"><ele>27.53</ele><time>2014-11-19T11:21:15Z</time></trkpt><trkpt lat="51.7400212772" lon="-2.2540385183"><ele>27.53</ele><time>2014-11-19T11:21:19Z</time></trkpt><trkpt lat="51.7399911862" lon="-2.2540531028"><ele>27.53</ele><time>2014-11-19T11:21:36Z</time></trkpt><trkpt lat="51.7400216963" lon="-2.2540373448"><ele>27.53</ele><time>2014-11-19T11:21:48Z</time></trkpt><trkpt lat="51.7400699761" lon="-2.2540243529"><ele>27.05</ele><time>2014-11-19T11:22:05Z</time></trkpt><trkpt lat="51.7400716525" lon="-2.2540047392"><ele>26.09</ele><time>2014-11-19T11:22:18Z</time></trkpt><trkpt lat="51.7400784418" lon="-2.2540028952"><ele>26.57</ele><time>2014-11-19T11:22:20Z</time></trkpt><trkpt lat="51.7400900088" lon="-2.2539660987"><ele>26.57</ele><time>2014-11-19T11:22:35Z</time></trkpt><trkpt lat="51.7401035875" lon="-2.2539440542"><ele>26.57</ele><time>2014-11-19T11:22:38Z</time></trkpt><trkpt lat="51.7400890868" lon="-2.2537469119"><ele>26.57</ele><time>2014-11-19T11:22:49Z</time></trkpt><trkpt lat="51.7400965467" lon="-2.2536349297"><ele>27.05</ele><time>2014-11-19T11:22:55Z</time></trkpt><trkpt lat="51.7400959600" lon="-2.2535734903"><ele>27.05</ele><time>2014-11-19T11:22:59Z</time></trkpt><trkpt lat="51.7401180882" lon="-2.2533150762"><ele>26.57</ele><time>2014-11-19T11:23:15Z</time></trkpt><trkpt lat="51.7401211895" lon="-2.2531161737"><ele>27.05</ele><time>2014-11-19T11:23:28Z</time></trkpt><trkpt lat="51.7401221953" lon="-2.2530712467"><ele>26.57</ele><time>2014-11-19T11:23:43Z</time></trkpt><trkpt lat="51.7401216924" lon="-2.2530404013"><ele>26.57</ele><time>2014-11-19T11:23:45Z</time></trkpt><trkpt lat="51.7401142325" lon="-2.2528559994"><ele>26.57</ele><time>2014-11-19T11:23:57Z</time></trkpt><trkpt lat="51.7401125561" lon="-2.2527994215"><ele>26.57</ele><time>2014-11-19T11:24:00Z</time></trkpt><trkpt lat="51.7401118856" lon="-2.2525112517"><ele>26.57</ele><time>2014-11-19T11:24:13Z</time></trkpt><trkpt lat="51.7401026655" lon="-2.2523203958"><ele>26.57</ele><time>2014-11-19T11:24:25Z</time></trkpt><trkpt lat="51.7400916852" lon="-2.2521411069"><ele>26.09</ele><time>2014-11-19T11:24:40Z</time></trkpt><trkpt lat="51.7400812078" lon="-2.2521226667"><ele>26.09</ele><time>2014-11-19T11:24:52Z</time></trkpt><trkpt lat="51.7400794476" lon="-2.2521177214"><ele>25.61</ele><time>2014-11-19T11:25:11Z</time></trkpt><trkpt lat="51.7400843091" lon="-2.2521512490"><ele>26.57</ele><time>2014-11-19T11:25:32Z</time></trkpt><trkpt lat="51.7401211057" lon="-2.2522768099"><ele>26.09</ele><time>2014-11-19T11:25:42Z</time></trkpt><trkpt lat="51.7401484307" lon="-2.2524819989"><ele>26.09</ele><time>2014-11-19T11:25:55Z</time></trkpt><trkpt lat="51.7401123047" lon="-2.2525586095"><ele>26.09</ele><time>2014-11-19T11:25:59Z</time></trkpt><trkpt lat="51.7400053516" lon="-2.2526584379"><ele>25.13</ele><time>2014-11-19T11:26:09Z</time></trkpt><trkpt lat="51.7398773599" lon="-2.2527730186"><ele>25.61</ele><time>2014-11-19T11:26:23Z</time></trkpt><trkpt lat="51.7397530563" lon="-2.2528994177"><ele>26.09</ele><time>2014-11-19T11:26:38Z</time></trkpt><trkpt lat="51.7396709975" lon="-2.2529875115"><ele>26.09</ele><time>2014-11-19T11:26:50Z</time></trkpt><trkpt lat="51.7395482026" lon="-2.2530953027"><ele>26.09</ele><time>2014-11-19T11:27:04Z</time></trkpt><trkpt lat="51.7394518945" lon="-2.2531366255"><ele>25.13</ele><time>2014-11-19T11:27:20Z</time></trkpt><trkpt lat="51.7393850069" lon="-2.2531573288"><ele>24.65</ele><time>2014-11-19T11:27:33Z</time></trkpt><trkpt lat="51.7393337097" lon="-2.2531476058"><ele>23.69</ele><time>2014-11-19T11:27:47Z</time></trkpt><trkpt lat="51.7392523214" lon="-2.2531223763"><ele>23.69</ele><time>2014-11-19T11:28:00Z</time></trkpt><trkpt lat="51.7392261699" lon="-2.2531490307"><ele>24.17</ele><time>2014-11-19T11:28:03Z</time></trkpt><trkpt lat="51.7391464580" lon="-2.2532743402"><ele>23.69</ele><time>2014-11-19T11:28:15Z</time></trkpt><trkpt lat="51.7391287722" lon="-2.2533145733"><ele>23.21</ele><time>2014-11-19T11:28:18Z</time></trkpt><trkpt lat="51.7390830908" lon="-2.2533641104"><ele>24.17</ele><time>2014-11-19T11:28:23Z</time></trkpt><trkpt lat="51.7390305363" lon="-2.2534451634"><ele>23.69</ele><time>2014-11-19T11:28:30Z</time></trkpt><trkpt lat="51.7389580328" lon="-2.2535420582"><ele>23.21</ele><time>2014-11-19T11:28:41Z</time></trkpt><trkpt lat="51.7388657480" lon="-2.2536837123"><ele>23.21</ele><time>2014-11-19T11:28:54Z</time></trkpt><trkpt lat="51.7388586234" lon="-2.2536883224"><ele>23.21</ele><time>2014-11-19T11:28:55Z</time></trkpt><trkpt lat="51.7388439551" lon="-2.2537235264"><ele>23.21</ele><time>2014-11-19T11:28:58Z</time></trkpt><trkpt lat="51.7388203181" lon="-2.2537495941"><ele>23.21</ele><time>2014-11-19T11:29:10Z</time></trkpt><trkpt lat="51.7388040572" lon="-2.2537837084"><ele>23.21</ele><time>2014-11-19T11:29:13Z</time></trkpt><trkpt lat="51.7387249321" lon="-2.2539293021"><ele>23.69</ele><time>2014-11-19T11:29:26Z</time></trkpt><trkpt lat="51.7387066595" lon="-2.2539552022"><ele>23.69</ele><time>2014-11-19T11:29:28Z</time></trkpt><trkpt lat="51.7386825196" lon="-2.2539733071"><ele>23.69</ele><time>2014-11-19T11:29:30Z</time></trkpt><trkpt lat="51.7385524325" lon="-2.2540607303"><ele>23.21</ele><time>2014-11-19T11:29:44Z</time></trkpt><trkpt lat="51.7384115327" lon="-2.2541351616"><ele>23.21</ele><time>2014-11-19T11:29:58Z</time></trkpt><trkpt lat="51.7382992152" lon="-2.2542119399"><ele>23.69</ele><time>2014-11-19T11:30:09Z</time></trkpt><trkpt lat="51.7381596565" lon="-2.2542921547"><ele>23.21</ele><time>2014-11-19T11:30:23Z</time></trkpt><trkpt lat="51.7380988039" lon="-2.2543375008"><ele>23.69</ele><time>2014-11-19T11:30:31Z</time></trkpt><trkpt lat="51.7379884981" lon="-2.2544088308"><ele>24.17</ele><time>2014-11-19T11:30:45Z</time></trkpt><trkpt lat="51.7378652841" lon="-2.2544293664"><ele>24.65</ele><time>2014-11-19T11:31:01Z</time></trkpt><trkpt lat="51.7378136516" lon="-2.2544271033"><ele>24.17</ele><time>2014-11-19T11:31:18Z</time></trkpt><trkpt lat="51.7377807945" lon="-2.2544141114"><ele>25.13</ele><time>2014-11-19T11:31:30Z</time></trkpt><trkpt lat="51.7377696466" lon="-2.2545838449"><ele>24.17</ele><time>2014-11-19T11:31:46Z</time></trkpt><trkpt lat="51.7378053535" lon="-2.2547964100"><ele>24.65</ele><time>2014-11-19T11:32:02Z</time></trkpt><trkpt lat="51.7377916910" lon="-2.2550292592"><ele>24.17</ele><time>2014-11-19T11:32:18Z</time></trkpt><trkpt lat="51.7377819680" lon="-2.2552811354"><ele>24.17</ele><time>2014-11-19T11:32:32Z</time></trkpt><trkpt lat="51.7377702333" lon="-2.2555429861"><ele>23.21</ele><time>2014-11-19T11:32:47Z</time></trkpt><trkpt lat="51.7377181817" lon="-2.2557751648"><ele>23.69</ele><time>2014-11-19T11:32:59Z</time></trkpt><trkpt lat="51.7377106380" lon="-2.2559088562"><ele>23.21</ele><time>2014-11-19T11:33:12Z</time></trkpt><trkpt lat="51.7377357837" lon="-2.2561684437"><ele>23.69</ele><time>2014-11-19T11:33:29Z</time></trkpt><trkpt lat="51.7377413996" lon="-2.2564136982"><ele>23.21</ele><time>2014-11-19T11:33:44Z</time></trkpt><trkpt lat="51.7377416510" lon="-2.2566801589"><ele>23.21</ele><time>2014-11-19T11:33:59Z</time></trkpt><trkpt lat="51.7377478536" lon="-2.2568135150"><ele>23.21</ele><time>2014-11-19T11:34:07Z</time></trkpt><trkpt lat="51.7377507035" lon="-2.2570845857"><ele>22.73</ele><time>2014-11-19T11:34:23Z</time></trkpt><trkpt lat="51.7377687246" lon="-2.2573314328"><ele>22.73</ele><time>2014-11-19T11:34:38Z</time></trkpt><trkpt lat="51.7377761845" lon="-2.2575198580"><ele>22.73</ele><time>2014-11-19T11:34:53Z</time></trkpt><trkpt lat="51.7378087901" lon="-2.2578336764"><ele>23.21</ele><time>2014-11-19T11:35:11Z</time></trkpt><trkpt lat="51.7378371209" lon="-2.2580630053"><ele>23.21</ele><time>2014-11-19T11:35:28Z</time></trkpt><trkpt lat="51.7378719058" lon="-2.2583202459"><ele>23.21</ele><time>2014-11-19T11:35:45Z</time></trkpt><trkpt lat="51.7379092053" lon="-2.2585142870"><ele>22.73</ele><time>2014-11-19T11:36:00Z</time></trkpt><trkpt lat="51.7379534617" lon="-2.2586910613"><ele>22.25</ele><time>2014-11-19T11:36:16Z</time></trkpt><trkpt lat="51.7379812058" lon="-2.2588114254"><ele>22.73</ele><time>2014-11-19T11:36:28Z</time></trkpt><trkpt lat="51.7379980534" lon="-2.2589846794"><ele>22.25</ele><time>2014-11-19T11:36:41Z</time></trkpt><trkpt lat="51.7380419746" lon="-2.2592989169"><ele>21.77</ele><time>2014-11-19T11:36:57Z</time></trkpt><trkpt lat="51.7380541284" lon="-2.2596061975"><ele>22.25</ele><time>2014-11-19T11:37:12Z</time></trkpt><trkpt lat="51.7380746640" lon="-2.2599108797"><ele>22.25</ele><time>2014-11-19T11:37:28Z</time></trkpt><trkpt lat="51.7380827945" lon="-2.2600641847"><ele>22.25</ele><time>2014-11-19T11:37:41Z</time></trkpt><trkpt lat="51.7381215189" lon="-2.2601807769"><ele>22.25</ele><time>2014-11-19T11:37:52Z</time></trkpt><trkpt lat="51.7381355166" lon="-2.2603003029"><ele>21.77</ele><time>2014-11-19T11:38:02Z</time></trkpt><trkpt lat="51.7381931003" lon="-2.2605000436"><ele>21.77</ele><time>2014-11-19T11:38:16Z</time></trkpt><trkpt lat="51.7382044997" lon="-2.2606390156"><ele>22.25</ele><time>2014-11-19T11:38:22Z</time></trkpt><trkpt lat="51.7382289749" lon="-2.2608711943"><ele>21.29</ele><time>2014-11-19T11:38:35Z</time></trkpt><trkpt lat="51.7382350098" lon="-2.2611805703"><ele>21.29</ele><time>2014-11-19T11:38:53Z</time></trkpt><trkpt lat="51.7382574733" lon="-2.2612653952"><ele>21.29</ele><time>2014-11-19T11:39:10Z</time></trkpt><trkpt lat="51.7382639274" lon="-2.2613716777"><ele>21.77</ele><time>2014-11-19T11:39:23Z</time></trkpt><trkpt lat="51.7383008916" lon="-2.2616388090"><ele>21.77</ele><time>2014-11-19T11:39:39Z</time></trkpt><trkpt lat="51.7382956110" lon="-2.2618771903"><ele>20.81</ele><time>2014-11-19T11:39:53Z</time></trkpt><trkpt lat="51.7383394483" lon="-2.2621490993"><ele>20.81</ele><time>2014-11-19T11:40:08Z</time></trkpt><trkpt lat="51.7383804359" lon="-2.2623372730"><ele>19.84</ele><time>2014-11-19T11:40:20Z</time></trkpt><trkpt lat="51.7384082638" lon="-2.2625096887"><ele>19.84</ele><time>2014-11-19T11:40:33Z</time></trkpt><trkpt lat="51.7384344153" lon="-2.2627501655"><ele>19.84</ele><time>2014-11-19T11:40:45Z</time></trkpt><trkpt lat="51.7384634167" lon="-2.2629204020"><ele>19.84</ele><time>2014-11-19T11:40:55Z</time></trkpt><trkpt lat="51.7384811863" lon="-2.2630737908"><ele>19.84</ele><time>2014-11-19T11:41:07Z</time></trkpt><trkpt lat="51.7384961899" lon="-2.2633290198"><ele>19.36</ele><time>2014-11-19T11:41:19Z</time></trkpt><trkpt lat="51.7385036498" lon="-2.2633925546"><ele>19.36</ele><time>2014-11-19T11:41:22Z</time></trkpt><trkpt lat="51.7385168932" lon="-2.2635474522"><ele>19.36</ele><time>2014-11-19T11:41:30Z</time></trkpt><trkpt lat="51.7385645024" lon="-2.2637255676"><ele>18.88</ele><time>2014-11-19T11:41:41Z</time></trkpt><trkpt lat="51.7385747284" lon="-2.2640268970"><ele>18.88</ele><time>2014-11-19T11:41:55Z</time></trkpt><trkpt lat="51.7385730520" lon="-2.2642637696"><ele>18.40</ele><time>2014-11-19T11:42:05Z</time></trkpt><trkpt lat="51.7385719623" lon="-2.2642910108"><ele>18.40</ele><time>2014-11-19T11:42:06Z</time></trkpt><trkpt lat="51.7385905702" lon="-2.2645759955"><ele>17.92</ele><time>2014-11-19T11:42:20Z</time></trkpt><trkpt lat="51.7386129498" lon="-2.2647187393"><ele>17.92</ele><time>2014-11-19T11:42:30Z</time></trkpt><trkpt lat="51.7386499979" lon="-2.2649085894"><ele>17.44</ele><time>2014-11-19T11:42:40Z</time></trkpt><trkpt lat="51.7386756465" lon="-2.2651748825"><ele>17.44</ele><time>2014-11-19T11:42:55Z</time></trkpt><trkpt lat="51.7386971042" lon="-2.2653638944"><ele>17.44</ele><time>2014-11-19T11:43:04Z</time></trkpt><trkpt lat="51.7387359124" lon="-2.2655648086"><ele>16.96</ele><time>2014-11-19T11:43:17Z</time></trkpt><trkpt lat="51.7387732957" lon="-2.2657750268"><ele>16.96</ele><time>2014-11-19T11:43:31Z</time></trkpt><trkpt lat="51.7388259340" lon="-2.2660365421"><ele>16.48</ele><time>2014-11-19T11:43:46Z</time></trkpt><trkpt lat="51.7388714477" lon="-2.2662629373"><ele>16.00</ele><time>2014-11-19T11:44:01Z</time></trkpt><trkpt lat="51.7389026284" lon="-2.2664530389"><ele>15.52</ele><time>2014-11-19T11:44:12Z</time></trkpt><trkpt lat="51.7389252596" lon="-2.2666947730"><ele>15.52</ele><time>2014-11-19T11:44:26Z</time></trkpt><trkpt lat="51.7389338929" lon="-2.2668774147"><ele>15.52</ele><time>2014-11-19T11:44:38Z</time></trkpt><trkpt lat="51.7389567755" lon="-2.2672010399"><ele>15.04</ele><time>2014-11-19T11:44:53Z</time></trkpt><trkpt lat="51.7389615532" lon="-2.2675099131"><ele>14.56</ele><time>2014-11-19T11:45:06Z</time></trkpt><trkpt lat="51.7389665823" lon="-2.2678055428"><ele>15.04</ele><time>2014-11-19T11:45:19Z</time></trkpt><trkpt lat="51.7389721144" lon="-2.2680472769"><ele>14.56</ele><time>2014-11-19T11:45:31Z</time></trkpt><trkpt lat="51.7389727850" lon="-2.2683792841"><ele>14.08</ele><time>2014-11-19T11:45:45Z</time></trkpt><trkpt lat="51.7389852740" lon="-2.2685532086"><ele>14.08</ele><time>2014-11-19T11:45:54Z</time></trkpt><trkpt lat="51.7390162870" lon="-2.2687738203"><ele>13.60</ele><time>2014-11-19T11:46:07Z</time></trkpt><trkpt lat="51.7390219029" lon="-2.2687925957"><ele>14.08</ele><time>2014-11-19T11:46:09Z</time></trkpt><trkpt lat="51.7390379123" lon="-2.2688495088"><ele>14.08</ele><time>2014-11-19T11:46:13Z</time></trkpt><trkpt lat="51.7390782293" lon="-2.2690831125"><ele>13.12</ele><time>2014-11-19T11:46:27Z</time></trkpt><trkpt lat="51.7390861921" lon="-2.2691938374"><ele>13.60</ele><time>2014-11-19T11:46:38Z</time></trkpt><trkpt lat="51.7390923109" lon="-2.2693195660"><ele>14.08</ele><time>2014-11-19T11:46:44Z</time></trkpt><trkpt lat="51.7390902154" lon="-2.2693497408"><ele>13.60</ele><time>2014-11-19T11:46:46Z</time></trkpt><trkpt lat="51.7390953284" lon="-2.2696061432"><ele>13.60</ele><time>2014-11-19T11:46:58Z</time></trkpt><trkpt lat="51.7391291913" lon="-2.2697177064"><ele>13.60</ele><time>2014-11-19T11:47:09Z</time></trkpt><trkpt lat="51.7391532473" lon="-2.2697700933"><ele>13.60</ele><time>2014-11-19T11:47:23Z</time></trkpt><trkpt lat="51.7391899601" lon="-2.2699736059"><ele>13.60</ele><time>2014-11-19T11:47:35Z</time></trkpt><trkpt lat="51.7391925585" lon="-2.2700534016"><ele>13.12</ele><time>2014-11-19T11:47:39Z</time></trkpt><trkpt lat="51.7392080650" lon="-2.2700929642"><ele>13.60</ele><time>2014-11-19T11:47:42Z</time></trkpt><trkpt lat="51.7392174527" lon="-2.2701751906"><ele>13.12</ele><time>2014-11-19T11:47:46Z</time></trkpt><trkpt lat="51.7392251641" lon="-2.2703664657"><ele>13.12</ele><time>2014-11-19T11:47:55Z</time></trkpt><trkpt lat="51.7392401677" lon="-2.2704999894"><ele>13.12</ele><time>2014-11-19T11:48:01Z</time></trkpt><trkpt lat="51.7392501421" lon="-2.2706561442"><ele>12.63</ele><time>2014-11-19T11:48:15Z</time></trkpt><trkpt lat="51.7392743658" lon="-2.2708454914"><ele>12.63</ele><time>2014-11-19T11:48:27Z</time></trkpt><trkpt lat="51.7393055465" lon="-2.2710668575"><ele>12.63</ele><time>2014-11-19T11:48:41Z</time></trkpt><trkpt lat="51.7393051274" lon="-2.2710717190"><ele>12.15</ele><time>2014-11-19T11:48:45Z</time></trkpt><trkpt lat="51.7393430974" lon="-2.2712973598"><ele>12.63</ele><time>2014-11-19T11:49:00Z</time></trkpt><trkpt lat="51.7393652257" lon="-2.2713783290"><ele>12.63</ele><time>2014-11-19T11:49:07Z</time></trkpt><trkpt lat="51.7394158524" lon="-2.2715708613"><ele>13.12</ele><time>2014-11-19T11:49:20Z</time></trkpt><trkpt lat="51.7394748610" lon="-2.2715934925"><ele>13.60</ele><time>2014-11-19T11:49:31Z</time></trkpt><trkpt lat="51.7396583408" lon="-2.2715717833"><ele>16.00</ele><time>2014-11-19T11:49:51Z</time></trkpt><trkpt lat="51.7397260666" lon="-2.2715302091"><ele>16.48</ele><time>2014-11-19T11:49:57Z</time></trkpt><trkpt lat="51.7398770247" lon="-2.2715314664"><ele>16.48</ele><time>2014-11-19T11:50:12Z</time></trkpt><trkpt lat="51.7400665395" lon="-2.2714516707"><ele>16.48</ele><time>2014-11-19T11:50:30Z</time></trkpt><trkpt lat="51.7400801182" lon="-2.2714687698"><ele>16.00</ele><time>2014-11-19T11:50:51Z</time></trkpt><trkpt lat="51.7400812916" lon="-2.2715479787"><ele>15.04</ele><time>2014-11-19T11:51:16Z</time></trkpt><trkpt lat="51.7401169147" lon="-2.2717018705"><ele>14.08</ele><time>2014-11-19T11:51:30Z</time></trkpt><trkpt lat="51.7400967143" lon="-2.2718157806"><ele>13.60</ele><time>2014-11-19T11:51:44Z</time></trkpt><trkpt lat="51.7400639411" lon="-2.2719625477"><ele>13.12</ele><time>2014-11-19T11:51:58Z</time></trkpt><trkpt lat="51.7400255520" lon="-2.2720541619"><ele>13.12</ele><time>2014-11-19T11:52:11Z</time></trkpt><trkpt lat="51.7400244623" lon="-2.2720617056"><ele>13.12</ele><time>2014-11-19T11:52:27Z</time></trkpt><trkpt lat="51.7400319222" lon="-2.2721886076"><ele>12.63</ele><time>2014-11-19T11:52:40Z</time></trkpt><trkpt lat="51.7400779389" lon="-2.2723623645"><ele>12.63</ele><time>2014-11-19T11:52:53Z</time></trkpt><trkpt lat="51.7401225306" lon="-2.2726482712"><ele>12.63</ele><time>2014-11-19T11:53:08Z</time></trkpt><trkpt lat="51.7401346005" lon="-2.2728262190"><ele>13.12</ele><time>2014-11-19T11:53:21Z</time></trkpt><trkpt lat="51.7402163241" lon="-2.2729904205"><ele>13.12</ele><time>2014-11-19T11:53:34Z</time></trkpt><trkpt lat="51.7402537074" lon="-2.2731764149"><ele>13.12</ele><time>2014-11-19T11:53:46Z</time></trkpt><trkpt lat="51.7402786855" lon="-2.2733518481"><ele>13.12</ele><time>2014-11-19T11:53:58Z</time></trkpt><trkpt lat="51.7403011490" lon="-2.2735557798"><ele>13.12</ele><time>2014-11-19T11:54:10Z</time></trkpt><trkpt lat="51.7403300665" lon="-2.2737126052"><ele>13.12</ele><time>2014-11-19T11:54:21Z</time></trkpt><trkpt lat="51.7403304018" lon="-2.2737528384"><ele>13.60</ele><time>2014-11-19T11:54:24Z</time></trkpt><trkpt lat="51.7403384484" lon="-2.2738708556"><ele>13.60</ele><time>2014-11-19T11:54:32Z</time></trkpt><trkpt lat="51.7403313238" lon="-2.2739701811"><ele>13.60</ele><time>2014-11-19T11:54:38Z</time></trkpt><trkpt lat="51.7403488420" lon="-2.2740561794"><ele>13.60</ele><time>2014-11-19T11:54:44Z</time></trkpt><trkpt lat="51.7403517757" lon="-2.2740997653"><ele>13.12</ele><time>2014-11-19T11:54:47Z</time></trkpt><trkpt lat="51.7403557152" lon="-2.2742809821"><ele>12.63</ele><time>2014-11-19T11:54:58Z</time></trkpt><trkpt lat="51.7403610796" lon="-2.2744814772"><ele>13.12</ele><time>2014-11-19T11:55:13Z</time></trkpt><trkpt lat="51.7403783463" lon="-2.2745569143"><ele>13.60</ele><time>2014-11-19T11:55:19Z</time></trkpt><trkpt lat="51.7404343374" lon="-2.2748104669"><ele>13.12</ele><time>2014-11-19T11:55:34Z</time></trkpt><trkpt lat="51.7404702120" lon="-2.2749894205"><ele>13.60</ele><time>2014-11-19T11:55:48Z</time></trkpt><trkpt lat="51.7405091878" lon="-2.2752054222"><ele>13.60</ele><time>2014-11-19T11:56:03Z</time></trkpt><trkpt lat="51.7405091878" lon="-2.2753069270"><ele>13.60</ele><time>2014-11-19T11:56:11Z</time></trkpt><trkpt lat="51.7405190784" lon="-2.2755106073"><ele>13.60</ele><time>2014-11-19T11:56:24Z</time></trkpt><trkpt lat="51.7405406199" lon="-2.2757202387"><ele>13.60</ele><time>2014-11-19T11:56:38Z</time></trkpt><trkpt lat="51.7405804340" lon="-2.2760020383"><ele>13.60</ele><time>2014-11-19T11:56:53Z</time></trkpt><trkpt lat="51.7405841220" lon="-2.2760436963"><ele>13.60</ele><time>2014-11-19T11:56:56Z</time></trkpt><trkpt lat="51.7406296358" lon="-2.2763325367"><ele>13.60</ele><time>2014-11-19T11:57:12Z</time></trkpt><trkpt lat="51.7406404484" lon="-2.2764521465"><ele>13.60</ele><time>2014-11-19T11:57:19Z</time></trkpt><trkpt lat="51.7407079227" lon="-2.2766526416"><ele>13.12</ele><time>2014-11-19T11:57:45Z</time></trkpt><trkpt lat="51.7407084256" lon="-2.2769807093"><ele>13.60</ele><time>2014-11-19T11:57:57Z</time></trkpt><trkpt lat="51.7407275364" lon="-2.2772729862"><ele>13.60</ele><time>2014-11-19T11:58:11Z</time></trkpt><trkpt lat="51.7407825217" lon="-2.2774485871"><ele>13.12</ele><time>2014-11-19T11:58:25Z</time></trkpt><trkpt lat="51.7407842819" lon="-2.2776686959"><ele>13.12</ele><time>2014-11-19T11:58:38Z</time></trkpt><trkpt lat="51.7408144567" lon="-2.2778240126"><ele>13.60</ele><time>2014-11-19T11:58:50Z</time></trkpt><trkpt lat="51.7408095114" lon="-2.2779473104"><ele>14.08</ele><time>2014-11-19T11:59:00Z</time></trkpt><trkpt lat="51.7408093438" lon="-2.2781452909"><ele>14.08</ele><time>2014-11-19T11:59:11Z</time></trkpt><trkpt lat="51.7408121098" lon="-2.2782307863"><ele>14.08</ele><time>2014-11-19T11:59:16Z</time></trkpt><trkpt lat="51.7408566177" lon="-2.2785131726"><ele>14.56</ele><time>2014-11-19T11:59:29Z</time></trkpt><trkpt lat="51.7408602219" lon="-2.2786797211"><ele>14.56</ele><time>2014-11-19T11:59:40Z</time></trkpt><trkpt lat="51.7408624850" lon="-2.2787781246"><ele>14.56</ele><time>2014-11-19T11:59:45Z</time></trkpt><trkpt lat="51.7409108486" lon="-2.2790169250"><ele>14.56</ele><time>2014-11-19T11:59:57Z</time></trkpt><trkpt lat="51.7409212422" lon="-2.2790823877"><ele>15.04</ele><time>2014-11-19T12:00:02Z</time></trkpt><trkpt lat="51.7409384251" lon="-2.2792672087"><ele>14.56</ele><time>2014-11-19T12:00:14Z</time></trkpt><trkpt lat="51.7409401014" lon="-2.2793178353"><ele>14.56</ele><time>2014-11-19T12:00:17Z</time></trkpt><trkpt lat="51.7409574520" lon="-2.2794582322"><ele>15.52</ele><time>2014-11-19T12:00:25Z</time></trkpt><trkpt lat="51.7409634870" lon="-2.2795910854"><ele>15.04</ele><time>2014-11-19T12:00:32Z</time></trkpt><trkpt lat="51.7409599666" lon="-2.2796709649"><ele>14.56</ele><time>2014-11-19T12:00:36Z</time></trkpt><trkpt lat="51.7409913987" lon="-2.2799280379"><ele>15.04</ele><time>2014-11-19T12:00:48Z</time></trkpt><trkpt lat="51.7409989424" lon="-2.2799676005"><ele>14.56</ele><time>2014-11-19T12:00:51Z</time></trkpt><trkpt lat="51.7410062347" lon="-2.2800160479"><ele>15.04</ele><time>2014-11-19T12:00:54Z</time></trkpt><trkpt lat="51.7410476413" lon="-2.2802545968"><ele>15.04</ele><time>2014-11-19T12:01:09Z</time></trkpt><trkpt lat="51.7411128525" lon="-2.2805168666"><ele>15.04</ele><time>2014-11-19T12:01:24Z</time></trkpt><trkpt lat="51.7411324661" lon="-2.2806467861"><ele>15.52</ele><time>2014-11-19T12:01:32Z</time></trkpt><trkpt lat="51.7411499843" lon="-2.2806879412"><ele>14.56</ele><time>2014-11-19T12:01:35Z</time></trkpt><trkpt lat="51.7411685083" lon="-2.2807913739"><ele>15.04</ele><time>2014-11-19T12:01:42Z</time></trkpt><trkpt lat="51.7412444483" lon="-2.2809469420"><ele>15.52</ele><time>2014-11-19T12:01:55Z</time></trkpt><trkpt lat="51.7412440293" lon="-2.2811396420"><ele>15.52</ele><time>2014-11-19T12:02:04Z</time></trkpt><trkpt lat="51.7413298599" lon="-2.2814169154"><ele>15.04</ele><time>2014-11-19T12:02:17Z</time></trkpt><trkpt lat="51.7413363140" lon="-2.2814578190"><ele>15.52</ele><time>2014-11-19T12:02:19Z</time></trkpt><trkpt lat="51.7413481325" lon="-2.2815187555"><ele>15.04</ele><time>2014-11-19T12:02:22Z</time></trkpt><trkpt lat="51.7414122541" lon="-2.2816743236"><ele>15.52</ele><time>2014-11-19T12:02:30Z</time></trkpt><trkpt lat="51.7414208036" lon="-2.2817488387"><ele>15.52</ele><time>2014-11-19T12:02:34Z</time></trkpt><trkpt lat="51.7414809857" lon="-2.2819035687"><ele>15.52</ele><time>2014-11-19T12:02:47Z</time></trkpt><trkpt lat="51.7415018566" lon="-2.2819950990"><ele>15.04</ele><time>2014-11-19T12:02:53Z</time></trkpt><trkpt lat="51.7415179498" lon="-2.2820641659"><ele>15.52</ele><time>2014-11-19T12:02:58Z</time></trkpt><trkpt lat="51.7415284272" lon="-2.2822054010"><ele>15.52</ele><time>2014-11-19T12:03:12Z</time></trkpt><trkpt lat="51.7415984161" lon="-2.2822990268"><ele>16.96</ele><time>2014-11-19T12:03:23Z</time></trkpt><trkpt lat="51.7416791338" lon="-2.2823105101"><ele>17.44</ele><time>2014-11-19T12:03:36Z</time></trkpt><trkpt lat="51.7417864222" lon="-2.2823253460"><ele>17.44</ele><time>2014-11-19T12:03:44Z</time></trkpt><trkpt lat="51.7419442534" lon="-2.2823346499"><ele>16.96</ele><time>2014-11-19T12:03:58Z</time></trkpt><trkpt lat="51.7420534696" lon="-2.2824269347"><ele>16.96</ele><time>2014-11-19T12:04:07Z</time></trkpt><trkpt lat="51.7420683056" lon="-2.2825719416"><ele>17.92</ele><time>2014-11-19T12:04:15Z</time></trkpt><trkpt lat="51.7420793697" lon="-2.2826526593"><ele>17.44</ele><time>2014-11-19T12:04:19Z</time></trkpt><trkpt lat="51.7420882545" lon="-2.2827267554"><ele>16.96</ele><time>2014-11-19T12:04:23Z</time></trkpt><trkpt lat="51.7421013303" lon="-2.2828004323"><ele>16.96</ele><time>2014-11-19T12:04:27Z</time></trkpt><trkpt lat="51.7421172559" lon="-2.2828877717"><ele>16.96</ele><time>2014-11-19T12:04:31Z</time></trkpt><trkpt lat="51.7421130650" lon="-2.2830406576"><ele>17.44</ele><time>2014-11-19T12:04:39Z</time></trkpt><trkpt lat="51.7421200220" lon="-2.2831071261"><ele>16.96</ele><time>2014-11-19T12:04:44Z</time></trkpt><trkpt lat="51.7421242129" lon="-2.2831561603"><ele>16.96</ele><time>2014-11-19T12:04:47Z</time></trkpt><trkpt lat="51.7421781085" lon="-2.2833134048"><ele>16.48</ele><time>2014-11-19T12:04:56Z</time></trkpt><trkpt lat="51.7421977222" lon="-2.2833389696"><ele>16.48</ele><time>2014-11-19T12:04:58Z</time></trkpt><trkpt lat="51.7422848102" lon="-2.2834030911"><ele>17.44</ele><time>2014-11-19T12:05:06Z</time></trkpt><trkpt lat="51.7423022445" lon="-2.2834519576"><ele>16.00</ele><time>2014-11-19T12:05:21Z</time></trkpt><trkpt lat="51.7423024122" lon="-2.2834521253"><ele>16.48</ele><time>2014-11-19T12:05:22Z</time></trkpt><trkpt lat="51.7423875723" lon="-2.2834714036"><ele>16.48</ele><time>2014-11-19T12:05:35Z</time></trkpt><trkpt lat="51.7424006481" lon="-2.2835012432"><ele>16.96</ele><time>2014-11-19T12:05:38Z</time></trkpt><trkpt lat="51.7425033264" lon="-2.2835919354"><ele>16.48</ele><time>2014-11-19T12:05:50Z</time></trkpt><trkpt lat="51.7426076811" lon="-2.2835892532"><ele>16.00</ele><time>2014-11-19T12:06:09Z</time></trkpt><trkpt lat="51.7426081002" lon="-2.2835581563"><ele>16.48</ele><time>2014-11-19T12:06:24Z</time></trkpt><trkpt lat="51.7426208407" lon="-2.2835289873"><ele>16.96</ele><time>2014-11-19T12:06:34Z</time></trkpt><trkpt lat="51.7428546958" lon="-2.2835624311"><ele>17.44</ele><time>2014-11-19T12:06:50Z</time></trkpt><trkpt lat="51.7430761456" lon="-2.2835858166"><ele>17.92</ele><time>2014-11-19T12:07:06Z</time></trkpt><trkpt lat="51.7431219108" lon="-2.2836041730"><ele>18.40</ele><time>2014-11-19T12:07:09Z</time></trkpt><trkpt lat="51.7433133535" lon="-2.2836183384"><ele>18.88</ele><time>2014-11-19T12:07:23Z</time></trkpt><trkpt lat="51.7434555106" lon="-2.2836590745"><ele>19.84</ele><time>2014-11-19T12:07:40Z</time></trkpt><trkpt lat="51.7436213885" lon="-2.2836838849"><ele>20.32</ele><time>2014-11-19T12:07:55Z</time></trkpt><trkpt lat="51.7437512241" lon="-2.2836286481"><ele>20.81</ele><time>2014-11-19T12:08:14Z</time></trkpt><trkpt lat="51.7437814828" lon="-2.2836258821"><ele>21.29</ele><time>2014-11-19T12:08:17Z</time></trkpt><trkpt lat="51.7438609432" lon="-2.2835773509"><ele>22.25</ele><time>2014-11-19T12:08:24Z</time></trkpt><trkpt lat="51.7440331075" lon="-2.2834386304"><ele>21.77</ele><time>2014-11-19T12:08:38Z</time></trkpt><trkpt lat="51.7441309243" lon="-2.2832879238"><ele>22.25</ele><time>2014-11-19T12:08:52Z</time></trkpt><trkpt lat="51.7441908550" lon="-2.2832626943"><ele>23.21</ele><time>2014-11-19T12:09:07Z</time></trkpt><trkpt lat="51.7443133146" lon="-2.2831498738"><ele>22.73</ele><time>2014-11-19T12:09:23Z</time></trkpt><trkpt lat="51.7443767656" lon="-2.2830696590"><ele>22.73</ele><time>2014-11-19T12:09:32Z</time></trkpt><trkpt lat="51.7444174178" lon="-2.2830227204"><ele>23.21</ele><time>2014-11-19T12:09:37Z</time></trkpt><trkpt lat="51.7445609998" lon="-2.2829083912"><ele>23.69</ele><time>2014-11-19T12:09:52Z</time></trkpt><trkpt lat="51.7446903326" lon="-2.2827820759"><ele>23.69</ele><time>2014-11-19T12:10:05Z</time></trkpt><trkpt lat="51.7447800189" lon="-2.2826990951"><ele>24.17</ele><time>2014-11-19T12:10:18Z</time></trkpt><trkpt lat="51.7448365968" lon="-2.2825472150"><ele>24.65</ele><time>2014-11-19T12:10:29Z</time></trkpt><trkpt lat="51.7449299712" lon="-2.2824322153"><ele>24.65</ele><time>2014-11-19T12:10:42Z</time></trkpt><trkpt lat="51.7449919973" lon="-2.2823470552"><ele>25.13</ele><time>2014-11-19T12:10:50Z</time></trkpt><trkpt lat="51.7451762315" lon="-2.2822179738"><ele>25.13</ele><time>2014-11-19T12:11:07Z</time></trkpt><trkpt lat="51.7452822626" lon="-2.2821552772"><ele>25.13</ele><time>2014-11-19T12:11:21Z</time></trkpt><trkpt lat="51.7454069015" lon="-2.2821413632"><ele>25.61</ele><time>2014-11-19T12:11:34Z</time></trkpt><trkpt lat="51.7454852723" lon="-2.2822183091"><ele>26.57</ele><time>2014-11-19T12:11:47Z</time></trkpt><trkpt lat="51.7455058917" lon="-2.2822851129"><ele>25.61</ele><time>2014-11-19T12:11:51Z</time></trkpt><trkpt lat="51.7454761360" lon="-2.2824670840"><ele>26.57</ele><time>2014-11-19T12:12:05Z</time></trkpt><trkpt lat="51.7454610486" lon="-2.2825194709"><ele>26.57</ele><time>2014-11-19T12:12:17Z</time></trkpt><trkpt lat="51.7454757169" lon="-2.2825252544"><ele>26.57</ele><time>2014-11-19T12:12:26Z</time></trkpt></trkseg></trk></gpx>